sensor_id;sensor_type;location;lat;lon;timestamp;P1;durP1;ratioP1;P2;durP2;ratioP2
61572;SDS011;47465;43.094;12.434;2023-01-10T00:01:51;18.77;;;5.43;;
61572;SDS011;47465;43.094;12.434;2023-01-10T00:04:17;14.50;;;4.85;;
61572;SDS011;47465;43.094;12.434;2023-01-10T00:06:43;13.20;;;4.90;;
61572;SDS011;47465;43.094;12.434;2023-01-10T00:09:09;17.58;;;7.68;;
61572;SDS011;47465;43.094;12.434;2023-01-10T00:11:35;23.77;;;8.18;;
61572;SDS011;47465;43.094;12.434;2023-01-10T00:14:34;22.95;;;7.85;;
61572;SDS011;47465;43.094;12.434;2023-01-10T00:17:00;24.00;;;7.53;;
61572;SDS011;47465;43.094;12.434;2023-01-10T00:19:26;18.15;;;6.78;;
61572;SDS011;47465;43.094;12.434;2023-01-10T00:21:52;16.33;;;5.75;;
61572;SDS011;47465;43.094;12.434;2023-01-10T00:24:19;17.35;;;6.10;;
61572;SDS011;47465;43.094;12.434;2023-01-10T00:26:46;20.38;;;7.47;;
61572;SDS011;47465;43.094;12.434;2023-01-10T00:29:15;18.40;;;5.78;;
61572;SDS011;47465;43.094;12.434;2023-01-10T00:31:43;19.90;;;6.30;;
61572;SDS011;47465;43.094;12.434;2023-01-10T00:34:09;17.63;;;6.30;;
61572;SDS011;47465;43.094;12.434;2023-01-10T00:36:35;20.92;;;5.55;;
61572;SDS011;47465;43.094;12.434;2023-01-10T00:39:01;19.88;;;6.68;;
61572;SDS011;47465;43.094;12.434;2023-01-10T00:41:29;18.13;;;6.88;;
61572;SDS011;47465;43.094;12.434;2023-01-10T00:44:28;13.95;;;5.18;;
61572;SDS011;47465;43.094;12.434;2023-01-10T00:46:54;19.30;;;6.00;;
61572;SDS011;47465;43.094;12.434;2023-01-10T00:49:19;14.25;;;6.32;;
61572;SDS011;47465;43.094;12.434;2023-01-10T00:51:45;14.18;;;5.30;;
61572;SDS011;47465;43.094;12.434;2023-01-10T00:54:11;15.13;;;6.10;;
61572;SDS011;47465;43.094;12.434;2023-01-10T00:56:39;13.48;;;5.32;;
61572;SDS011;47465;43.094;12.434;2023-01-10T00:59:05;15.27;;;5.18;;
61572;SDS011;47465;43.094;12.434;2023-01-10T01:01:32;16.10;;;4.45;;
61572;SDS011;47465;43.094;12.434;2023-01-10T01:03:58;11.20;;;4.63;;
61572;SDS011;47465;43.094;12.434;2023-01-10T01:06:24;8.18;;;4.00;;
61572;SDS011;47465;43.094;12.434;2023-01-10T01:08:50;8.15;;;4.00;;
61572;SDS011;47465;43.094;12.434;2023-01-10T01:11:16;8.52;;;3.88;;
61572;SDS011;47465;43.094;12.434;2023-01-10T01:13:42;7.22;;;3.88;;
61572;SDS011;47465;43.094;12.434;2023-01-10T01:16:08;8.88;;;4.20;;
61572;SDS011;47465;43.094;12.434;2023-01-10T01:18:35;9.05;;;4.28;;
61572;SDS011;47465;43.094;12.434;2023-01-10T01:21:01;7.03;;;4.25;;
61572;SDS011;47465;43.094;12.434;2023-01-10T01:23:29;6.43;;;4.07;;
61572;SDS011;47465;43.094;12.434;2023-01-10T01:25:56;8.52;;;4.47;;
61572;SDS011;47465;43.094;12.434;2023-01-10T01:28:22;6.53;;;3.95;;
61572;SDS011;47465;43.094;12.434;2023-01-10T01:30:49;6.88;;;4.30;;
61572;SDS011;47465;43.094;12.434;2023-01-10T01:33:15;7.47;;;4.07;;
61572;SDS011;47465;43.094;12.434;2023-01-10T01:35:44;7.28;;;4.32;;
61572;SDS011;47465;43.094;12.434;2023-01-10T01:38:12;9.43;;;4.70;;
61572;SDS011;47465;43.094;12.434;2023-01-10T01:40:38;8.13;;;4.10;;
61572;SDS011;47465;43.094;12.434;2023-01-10T01:43:08;6.88;;;3.83;;
61572;SDS011;47465;43.094;12.434;2023-01-10T01:45:46;6.65;;;3.97;;
61572;SDS011;47465;43.094;12.434;2023-01-10T01:48:17;5.50;;;3.75;;
61572;SDS011;47465;43.094;12.434;2023-01-10T01:50:49;5.68;;;3.60;;
61572;SDS011;47465;43.094;12.434;2023-01-10T01:53:22;5.50;;;3.10;;
61572;SDS011;47465;43.094;12.434;2023-01-10T01:55:54;5.00;;;3.08;;
61572;SDS011;47465;43.094;12.434;2023-01-10T01:58:26;5.40;;;3.03;;
61572;SDS011;47465;43.094;12.434;2023-01-10T02:00:57;4.53;;;3.15;;
61572;SDS011;47465;43.094;12.434;2023-01-10T02:03:23;4.60;;;3.05;;
61572;SDS011;47465;43.094;12.434;2023-01-10T02:05:52;3.65;;;2.47;;
61572;SDS011;47465;43.094;12.434;2023-01-10T02:08:18;5.88;;;2.80;;
61572;SDS011;47465;43.094;12.434;2023-01-10T02:10:44;4.38;;;2.72;;
61572;SDS011;47465;43.094;12.434;2023-01-10T02:13:17;4.30;;;2.63;;
61572;SDS011;47465;43.094;12.434;2023-01-10T02:15:44;4.82;;;2.70;;
61572;SDS011;47465;43.094;12.434;2023-01-10T02:18:10;3.97;;;2.60;;
61572;SDS011;47465;43.094;12.434;2023-01-10T02:20:38;5.93;;;2.83;;
61572;SDS011;47465;43.094;12.434;2023-01-10T02:23:25;3.70;;;2.60;;
61572;SDS011;47465;43.094;12.434;2023-01-10T02:26:18;4.78;;;2.80;;
61572;SDS011;47465;43.094;12.434;2023-01-10T02:29:15;3.70;;;2.40;;
61572;SDS011;47465;43.094;12.434;2023-01-10T02:31:58;3.20;;;2.20;;
61572;SDS011;47465;43.094;12.434;2023-01-10T02:34:43;4.23;;;2.70;;
61572;SDS011;47465;43.094;12.434;2023-01-10T02:37:21;3.92;;;2.20;;
61572;SDS011;47465;43.094;12.434;2023-01-10T02:39:54;3.70;;;2.25;;
61572;SDS011;47465;43.094;12.434;2023-01-10T02:42:25;3.40;;;2.05;;
61572;SDS011;47465;43.094;12.434;2023-01-10T02:44:57;5.35;;;2.40;;
61572;SDS011;47465;43.094;12.434;2023-01-10T02:47:34;3.67;;;2.13;;
61572;SDS011;47465;43.094;12.434;2023-01-10T02:50:15;3.08;;;2.08;;
61572;SDS011;47465;43.094;12.434;2023-01-10T02:52:52;3.03;;;2.20;;
61572;SDS011;47465;43.094;12.434;2023-01-10T02:55:19;3.40;;;2.10;;
61572;SDS011;47465;43.094;12.434;2023-01-10T02:57:47;2.45;;;1.90;;
61572;SDS011;47465;43.094;12.434;2023-01-10T03:00:23;2.90;;;1.80;;
61572;SDS011;47465;43.094;12.434;2023-01-10T03:03:13;5.00;;;2.80;;
61572;SDS011;47465;43.094;12.434;2023-01-10T03:05:53;3.20;;;2.10;;
61572;SDS011;47465;43.094;12.434;2023-01-10T03:08:32;5.95;;;3.00;;
61572;SDS011;47465;43.094;12.434;2023-01-10T03:11:02;5.22;;;3.10;;
61572;SDS011;47465;43.094;12.434;2023-01-10T03:13:30;6.68;;;3.10;;
61572;SDS011;47465;43.094;12.434;2023-01-10T03:16:02;5.15;;;2.83;;
61572;SDS011;47465;43.094;12.434;2023-01-10T03:21:02;4.72;;;2.80;;
61572;SDS011;47465;43.094;12.434;2023-01-10T03:23:30;4.47;;;2.40;;
61572;SDS011;47465;43.094;12.434;2023-01-10T03:26:00;3.72;;;2.30;;
61572;SDS011;47465;43.094;12.434;2023-01-10T03:28:29;3.55;;;2.40;;
61572;SDS011;47465;43.094;12.434;2023-01-10T03:30:59;5.03;;;2.72;;
61572;SDS011;47465;43.094;12.434;2023-01-10T03:33:31;4.05;;;2.53;;
61572;SDS011;47465;43.094;12.434;2023-01-10T03:36:03;3.20;;;2.25;;
61572;SDS011;47465;43.094;12.434;2023-01-10T03:38:36;5.50;;;2.30;;
61572;SDS011;47465;43.094;12.434;2023-01-10T03:41:10;4.65;;;2.20;;
61572;SDS011;47465;43.094;12.434;2023-01-10T03:43:42;3.28;;;1.88;;
61572;SDS011;47465;43.094;12.434;2023-01-10T03:46:50;2.33;;;1.70;;
61572;SDS011;47465;43.094;12.434;2023-01-10T03:49:23;2.03;;;1.70;;
61572;SDS011;47465;43.094;12.434;2023-01-10T03:51:51;2.80;;;1.50;;
61572;SDS011;47465;43.094;12.434;2023-01-10T03:54:19;1.60;;;1.50;;
61572;SDS011;47465;43.094;12.434;2023-01-10T03:56:45;2.95;;;1.63;;
61572;SDS011;47465;43.094;12.434;2023-01-10T03:59:12;2.38;;;1.70;;
61572;SDS011;47465;43.094;12.434;2023-01-10T04:01:38;1.60;;;1.50;;
61572;SDS011;47465;43.094;12.434;2023-01-10T04:04:05;2.20;;;1.60;;
61572;SDS011;47465;43.094;12.434;2023-01-10T04:06:31;2.10;;;1.48;;
61572;SDS011;47465;43.094;12.434;2023-01-10T04:08:57;1.88;;;1.60;;
61572;SDS011;47465;43.094;12.434;2023-01-10T04:11:23;2.22;;;1.60;;
61572;SDS011;47465;43.094;12.434;2023-01-10T04:13:49;2.70;;;1.70;;
61572;SDS011;47465;43.094;12.434;2023-01-10T04:16:14;4.20;;;2.05;;
61572;SDS011;47465;43.094;12.434;2023-01-10T04:18:40;3.45;;;2.30;;
61572;SDS011;47465;43.094;12.434;2023-01-10T04:21:08;2.65;;;2.00;;
61572;SDS011;47465;43.094;12.434;2023-01-10T04:23:34;2.58;;;1.98;;
61572;SDS011;47465;43.094;12.434;2023-01-10T04:25:59;2.25;;;1.85;;
61572;SDS011;47465;43.094;12.434;2023-01-10T04:28:25;3.15;;;1.92;;
61572;SDS011;47465;43.094;12.434;2023-01-10T04:30:51;2.10;;;1.77;;
61572;SDS011;47465;43.094;12.434;2023-01-10T04:33:17;3.55;;;1.88;;
61572;SDS011;47465;43.094;12.434;2023-01-10T04:35:45;3.95;;;2.00;;
61572;SDS011;47465;43.094;12.434;2023-01-10T04:38:13;2.55;;;1.88;;
61572;SDS011;47465;43.094;12.434;2023-01-10T04:40:40;2.75;;;1.55;;
61572;SDS011;47465;43.094;12.434;2023-01-10T04:43:06;4.55;;;1.73;;
61572;SDS011;47465;43.094;12.434;2023-01-10T04:45:31;6.20;;;1.92;;
61572;SDS011;47465;43.094;12.434;2023-01-10T04:47:58;3.55;;;1.83;;
61572;SDS011;47465;43.094;12.434;2023-01-10T04:50:24;2.95;;;1.90;;
61572;SDS011;47465;43.094;12.434;2023-01-10T04:52:51;1.60;;;1.50;;
61572;SDS011;47465;43.094;12.434;2023-01-10T04:55:18;3.42;;;1.40;;
61572;SDS011;47465;43.094;12.434;2023-01-10T04:57:44;1.92;;;1.60;;
61572;SDS011;47465;43.094;12.434;2023-01-10T05:00:10;2.65;;;1.50;;
61572;SDS011;47465;43.094;12.434;2023-01-10T05:02:37;1.40;;;1.30;;
61572;SDS011;47465;43.094;12.434;2023-01-10T05:05:08;2.47;;;1.40;;
61572;SDS011;47465;43.094;12.434;2023-01-10T05:07:34;4.07;;;1.40;;
61572;SDS011;47465;43.094;12.434;2023-01-10T05:10:00;2.03;;;1.38;;
61572;SDS011;47465;43.094;12.434;2023-01-10T05:12:28;1.40;;;1.30;;
61572;SDS011;47465;43.094;12.434;2023-01-10T05:14:54;1.85;;;1.48;;
61572;SDS011;47465;43.094;12.434;2023-01-10T05:17:20;1.33;;;1.23;;
61572;SDS011;47465;43.094;12.434;2023-01-10T05:19:46;1.30;;;1.20;;
61572;SDS011;47465;43.094;12.434;2023-01-10T05:22:12;1.77;;;1.30;;
61572;SDS011;47465;43.094;12.434;2023-01-10T05:24:38;1.30;;;1.20;;
61572;SDS011;47465;43.094;12.434;2023-01-10T05:27:03;1.35;;;1.20;;
61572;SDS011;47465;43.094;12.434;2023-01-10T05:29:31;1.10;;;1.10;;
61572;SDS011;47465;43.094;12.434;2023-01-10T05:31:57;1.67;;;1.30;;
61572;SDS011;47465;43.094;12.434;2023-01-10T05:34:23;4.55;;;2.05;;
61572;SDS011;47465;43.094;12.434;2023-01-10T05:36:49;1.27;;;1.15;;
61572;SDS011;47465;43.094;12.434;2023-01-10T05:39:15;1.90;;;1.40;;
61572;SDS011;47465;43.094;12.434;2023-01-10T05:41:41;2.33;;;1.40;;
61572;SDS011;47465;43.094;12.434;2023-01-10T05:44:07;2.35;;;1.30;;
61572;SDS011;47465;43.094;12.434;2023-01-10T05:46:35;1.50;;;1.40;;
61572;SDS011;47465;43.094;12.434;2023-01-10T05:49:01;2.78;;;1.40;;
61572;SDS011;47465;43.094;12.434;2023-01-10T05:51:26;1.45;;;1.35;;
61572;SDS011;47465;43.094;12.434;2023-01-10T05:53:52;1.40;;;1.30;;
61572;SDS011;47465;43.094;12.434;2023-01-10T05:56:18;1.88;;;1.70;;
61572;SDS011;47465;43.094;12.434;2023-01-10T05:58:44;2.38;;;1.35;;
61572;SDS011;47465;43.094;12.434;2023-01-10T06:01:10;2.90;;;1.40;;
61572;SDS011;47465;43.094;12.434;2023-01-10T06:03:37;1.77;;;1.30;;
61572;SDS011;47465;43.094;12.434;2023-01-10T06:06:03;1.48;;;1.35;;
61572;SDS011;47465;43.094;12.434;2023-01-10T06:08:30;1.40;;;1.25;;
61572;SDS011;47465;43.094;12.434;2023-01-10T06:10:55;2.13;;;1.40;;
61572;SDS011;47465;43.094;12.434;2023-01-10T06:13:21;2.42;;;1.35;;
61572;SDS011;47465;43.094;12.434;2023-01-10T06:15:47;1.48;;;1.38;;
61572;SDS011;47465;43.094;12.434;2023-01-10T06:18:14;1.52;;;1.40;;
61572;SDS011;47465;43.094;12.434;2023-01-10T06:20:42;2.78;;;1.92;;
61572;SDS011;47465;43.094;12.434;2023-01-10T06:23:08;4.50;;;2.00;;
61572;SDS011;47465;43.094;12.434;2023-01-10T06:25:35;3.58;;;1.77;;
61572;SDS011;47465;43.094;12.434;2023-01-10T06:28:04;2.35;;;1.80;;
61572;SDS011;47465;43.094;12.434;2023-01-10T06:30:31;1.60;;;1.50;;
61572;SDS011;47465;43.094;12.434;2023-01-10T06:32:59;2.20;;;1.60;;
61572;SDS011;47465;43.094;12.434;2023-01-10T06:35:25;2.30;;;1.40;;
61572;SDS011;47465;43.094;12.434;2023-01-10T06:37:53;1.98;;;1.40;;
61572;SDS011;47465;43.094;12.434;2023-01-10T06:40:19;1.40;;;1.30;;
61572;SDS011;47465;43.094;12.434;2023-01-10T06:42:45;1.40;;;1.30;;
61572;SDS011;47465;43.094;12.434;2023-01-10T06:45:11;1.17;;;1.17;;
61572;SDS011;47465;43.094;12.434;2023-01-10T06:47:37;2.85;;;1.50;;
61572;SDS011;47465;43.094;12.434;2023-01-10T06:50:03;2.13;;;1.50;;
61572;SDS011;47465;43.094;12.434;2023-01-10T06:52:30;2.38;;;1.77;;
61572;SDS011;47465;43.094;12.434;2023-01-10T06:54:57;4.97;;;3.13;;
61572;SDS011;47465;43.094;12.434;2023-01-10T06:57:23;6.80;;;3.42;;
61572;SDS011;47465;43.094;12.434;2023-01-10T06:59:49;7.68;;;3.70;;
61572;SDS011;47465;43.094;12.434;2023-01-10T07:02:15;6.15;;;4.13;;
61572;SDS011;47465;43.094;12.434;2023-01-10T07:04:41;6.35;;;4.10;;
61572;SDS011;47465;43.094;12.434;2023-01-10T07:07:07;7.85;;;4.22;;
61572;SDS011;47465;43.094;12.434;2023-01-10T07:09:33;7.75;;;4.45;;
61572;SDS011;47465;43.094;12.434;2023-01-10T07:12:00;6.20;;;3.90;;
61572;SDS011;47465;43.094;12.434;2023-01-10T07:14:26;7.95;;;3.92;;
61572;SDS011;47465;43.094;12.434;2023-01-10T07:16:52;6.25;;;3.88;;
61572;SDS011;47465;43.094;12.434;2023-01-10T07:19:18;6.55;;;4.13;;
61572;SDS011;47465;43.094;12.434;2023-01-10T07:21:44;5.32;;;3.28;;
61572;SDS011;47465;43.094;12.434;2023-01-10T07:24:10;4.72;;;3.40;;
61572;SDS011;47465;43.094;12.434;2023-01-10T07:26:36;8.65;;;3.30;;
61572;SDS011;47465;43.094;12.434;2023-01-10T07:29:04;7.32;;;4.03;;
61572;SDS011;47465;43.094;12.434;2023-01-10T07:31:29;5.18;;;3.53;;
61572;SDS011;47465;43.094;12.434;2023-01-10T07:33:55;6.00;;;3.35;;
61572;SDS011;47465;43.094;12.434;2023-01-10T07:36:21;3.38;;;2.25;;
61572;SDS011;47465;43.094;12.434;2023-01-10T07:38:47;4.28;;;2.40;;
61572;SDS011;47465;43.094;12.434;2023-01-10T07:41:13;5.47;;;2.58;;
61572;SDS011;47465;43.094;12.434;2023-01-10T07:43:39;3.72;;;2.00;;
61572;SDS011;47465;43.094;12.434;2023-01-10T07:46:07;6.07;;;2.10;;
61572;SDS011;47465;43.094;12.434;2023-01-10T07:48:36;4.00;;;2.30;;
61572;SDS011;47465;43.094;12.434;2023-01-10T07:51:03;9.82;;;5.65;;
61572;SDS011;47465;43.094;12.434;2023-01-10T07:53:29;11.60;;;6.03;;
61572;SDS011;47465;43.094;12.434;2023-01-10T07:55:57;12.27;;;6.07;;
61572;SDS011;47465;43.094;12.434;2023-01-10T07:58:24;9.83;;;7.03;;
61572;SDS011;47465;43.094;12.434;2023-01-10T08:00:50;10.77;;;6.30;;
61572;SDS011;47465;43.094;12.434;2023-01-10T08:03:17;10.43;;;5.88;;
61572;SDS011;47465;43.094;12.434;2023-01-10T08:05:43;5.75;;;3.70;;
61572;SDS011;47465;43.094;12.434;2023-01-10T08:08:10;5.20;;;3.00;;
61572;SDS011;47465;43.094;12.434;2023-01-10T08:10:37;7.57;;;5.03;;
61572;SDS011;47465;43.094;12.434;2023-01-10T08:13:04;7.55;;;5.00;;
61572;SDS011;47465;43.094;12.434;2023-01-10T08:15:30;9.75;;;5.50;;
61572;SDS011;47465;43.094;12.434;2023-01-10T08:17:58;12.85;;;6.72;;
61572;SDS011;47465;43.094;12.434;2023-01-10T08:20:26;11.50;;;6.05;;
61572;SDS011;47465;43.094;12.434;2023-01-10T08:22:52;12.73;;;6.70;;
61572;SDS011;47465;43.094;12.434;2023-01-10T08:25:17;8.77;;;5.57;;
61572;SDS011;47465;43.094;12.434;2023-01-10T08:27:43;9.98;;;6.32;;
61572;SDS011;47465;43.094;12.434;2023-01-10T08:30:10;12.27;;;7.00;;
61572;SDS011;47465;43.094;12.434;2023-01-10T08:32:36;13.55;;;6.75;;
61572;SDS011;47465;43.094;12.434;2023-01-10T08:35:04;5.97;;;4.10;;
61572;SDS011;47465;43.094;12.434;2023-01-10T08:37:32;9.55;;;4.72;;
61572;SDS011;47465;43.094;12.434;2023-01-10T08:39:59;7.00;;;4.30;;
61572;SDS011;47465;43.094;12.434;2023-01-10T08:42:25;6.75;;;4.28;;
61572;SDS011;47465;43.094;12.434;2023-01-10T08:44:51;8.60;;;4.50;;
61572;SDS011;47465;43.094;12.434;2023-01-10T08:47:17;9.13;;;4.20;;
61572;SDS011;47465;43.094;12.434;2023-01-10T08:49:43;7.45;;;4.10;;
61572;SDS011;47465;43.094;12.434;2023-01-10T08:52:09;9.40;;;4.30;;
61572;SDS011;47465;43.094;12.434;2023-01-10T08:54:36;5.85;;;4.20;;
61572;SDS011;47465;43.094;12.434;2023-01-10T08:57:02;7.07;;;4.60;;
61572;SDS011;47465;43.094;12.434;2023-01-10T08:59:28;7.22;;;3.88;;
61572;SDS011;47465;43.094;12.434;2023-01-10T09:01:54;8.13;;;4.53;;
61572;SDS011;47465;43.094;12.434;2023-01-10T09:04:22;11.02;;;6.57;;
61572;SDS011;47465;43.094;12.434;2023-01-10T09:06:48;10.98;;;6.32;;
61572;SDS011;47465;43.094;12.434;2023-01-10T09:09:14;10.23;;;5.40;;
61572;SDS011;47465;43.094;12.434;2023-01-10T09:11:42;7.72;;;4.28;;
61572;SDS011;47465;43.094;12.434;2023-01-10T09:14:07;8.82;;;4.88;;
61572;SDS011;47465;43.094;12.434;2023-01-10T09:16:33;16.30;;;4.68;;
61572;SDS011;47465;43.094;12.434;2023-01-10T09:18:59;9.70;;;4.35;;
61572;SDS011;47465;43.094;12.434;2023-01-10T09:21:26;8.48;;;4.93;;
61572;SDS011;47465;43.094;12.434;2023-01-10T09:23:52;10.18;;;6.78;;
61572;SDS011;47465;43.094;12.434;2023-01-10T09:26:18;11.85;;;6.65;;
61572;SDS011;47465;43.094;12.434;2023-01-10T09:28:46;9.43;;;6.38;;
61572;SDS011;47465;43.094;12.434;2023-01-10T09:31:13;8.73;;;6.00;;
61572;SDS011;47465;43.094;12.434;2023-01-10T09:33:39;11.43;;;6.05;;
61572;SDS011;47465;43.094;12.434;2023-01-10T09:36:07;17.88;;;13.07;;
61572;SDS011;47465;43.094;12.434;2023-01-10T09:38:33;15.32;;;11.05;;
61572;SDS011;47465;43.094;12.434;2023-01-10T09:41:18;10.45;;;7.43;;
61572;SDS011;47465;43.094;12.434;2023-01-10T09:44:04;13.50;;;8.15;;
61572;SDS011;47465;43.094;12.434;2023-01-10T09:46:41;12.00;;;8.15;;
61572;SDS011;47465;43.094;12.434;2023-01-10T09:49:19;13.27;;;8.20;;
61572;SDS011;47465;43.094;12.434;2023-01-10T09:51:51;15.70;;;8.60;;
61572;SDS011;47465;43.094;12.434;2023-01-10T09:54:22;15.57;;;8.82;;
61572;SDS011;47465;43.094;12.434;2023-01-10T09:56:51;14.73;;;8.10;;
61572;SDS011;47465;43.094;12.434;2023-01-10T09:59:22;13.15;;;7.72;;
61572;SDS011;47465;43.094;12.434;2023-01-10T10:01:50;13.48;;;8.07;;
61572;SDS011;47465;43.094;12.434;2023-01-10T10:04:22;12.57;;;7.30;;
61572;SDS011;47465;43.094;12.434;2023-01-10T10:06:52;11.32;;;7.15;;
61572;SDS011;47465;43.094;12.434;2023-01-10T10:09:21;12.02;;;7.15;;
61572;SDS011;47465;43.094;12.434;2023-01-10T10:11:52;9.88;;;6.60;;
61572;SDS011;47465;43.094;12.434;2023-01-10T10:14:39;11.57;;;6.40;;
61572;SDS011;47465;43.094;12.434;2023-01-10T10:17:17;14.77;;;7.30;;
61572;SDS011;47465;43.094;12.434;2023-01-10T10:19:58;12.57;;;6.68;;
61572;SDS011;47465;43.094;12.434;2023-01-10T10:22:33;10.02;;;6.40;;
61572;SDS011;47465;43.094;12.434;2023-01-10T10:25:12;11.80;;;6.40;;
61572;SDS011;47465;43.094;12.434;2023-01-10T10:28:00;18.33;;;6.95;;
61572;SDS011;47465;43.094;12.434;2023-01-10T10:30:41;10.00;;;5.53;;
61572;SDS011;47465;43.094;12.434;2023-01-10T10:33:20;11.15;;;6.90;;
61572;SDS011;47465;43.094;12.434;2023-01-10T10:35:59;8.45;;;5.65;;
61572;SDS011;47465;43.094;12.434;2023-01-10T10:38:30;8.75;;;6.20;;
61572;SDS011;47465;43.094;12.434;2023-01-10T10:41:00;12.63;;;6.50;;
61572;SDS011;47465;43.094;12.434;2023-01-10T10:43:29;10.38;;;5.57;;
61572;SDS011;47465;43.094;12.434;2023-01-10T10:45:59;8.18;;;5.72;;
61572;SDS011;47465;43.094;12.434;2023-01-10T10:48:30;8.27;;;5.38;;
61572;SDS011;47465;43.094;12.434;2023-01-10T10:51:00;8.18;;;5.45;;
61572;SDS011;47465;43.094;12.434;2023-01-10T10:53:30;9.65;;;5.22;;
61572;SDS011;47465;43.094;12.434;2023-01-10T10:55:58;7.72;;;4.82;;
61572;SDS011;47465;43.094;12.434;2023-01-10T10:58:24;7.00;;;4.25;;
61572;SDS011;47465;43.094;12.434;2023-01-10T11:00:50;8.73;;;4.43;;
61572;SDS011;47465;43.094;12.434;2023-01-10T11:03:26;7.15;;;4.20;;
61572;SDS011;47465;43.094;12.434;2023-01-10T11:05:57;6.63;;;4.38;;
61572;SDS011;47465;43.094;12.434;2023-01-10T11:08:25;8.05;;;4.72;;
61572;SDS011;47465;43.094;12.434;2023-01-10T11:10:55;9.00;;;4.72;;
61572;SDS011;47465;43.094;12.434;2023-01-10T11:13:24;8.45;;;4.65;;
61572;SDS011;47465;43.094;12.434;2023-01-10T11:16:00;8.50;;;5.13;;
61572;SDS011;47465;43.094;12.434;2023-01-10T11:18:30;8.00;;;5.03;;
61572;SDS011;47465;43.094;12.434;2023-01-10T11:20:57;13.13;;;5.43;;
61572;SDS011;47465;43.094;12.434;2023-01-10T11:23:32;9.93;;;5.85;;
61572;SDS011;47465;43.094;12.434;2023-01-10T11:26:03;12.60;;;5.88;;
61572;SDS011;47465;43.094;12.434;2023-01-10T11:28:31;9.57;;;5.47;;
61572;SDS011;47465;43.094;12.434;2023-01-10T11:30:58;9.50;;;5.63;;
61572;SDS011;47465;43.094;12.434;2023-01-10T11:33:26;8.73;;;5.18;;
61572;SDS011;47465;43.094;12.434;2023-01-10T11:35:59;7.35;;;5.15;;
61572;SDS011;47465;43.094;12.434;2023-01-10T11:38:28;8.13;;;5.35;;
61572;SDS011;47465;43.094;12.434;2023-01-10T11:40:55;9.55;;;5.45;;
61572;SDS011;47465;43.094;12.434;2023-01-10T11:43:24;8.32;;;5.70;;
61572;SDS011;47465;43.094;12.434;2023-01-10T11:45:53;10.13;;;6.30;;
61572;SDS011;47465;43.094;12.434;2023-01-10T11:48:21;11.65;;;6.05;;
61572;SDS011;47465;43.094;12.434;2023-01-10T11:50:48;7.72;;;5.47;;
61572;SDS011;47465;43.094;12.434;2023-01-10T11:53:37;9.48;;;5.43;;
61572;SDS011;47465;43.094;12.434;2023-01-10T11:56:06;9.32;;;5.75;;
61572;SDS011;47465;43.094;12.434;2023-01-10T11:58:35;8.55;;;5.40;;
61572;SDS011;47465;43.094;12.434;2023-01-10T12:01:04;9.50;;;5.43;;
61572;SDS011;47465;43.094;12.434;2023-01-10T12:03:31;9.68;;;5.78;;
61572;SDS011;47465;43.094;12.434;2023-01-10T12:06:01;8.35;;;5.53;;
61572;SDS011;47465;43.094;12.434;2023-01-10T12:08:29;9.00;;;5.57;;
61572;SDS011;47465;43.094;12.434;2023-01-10T12:11:02;12.88;;;5.93;;
61572;SDS011;47465;43.094;12.434;2023-01-10T12:13:30;10.98;;;5.45;;
61572;SDS011;47465;43.094;12.434;2023-01-10T12:16:18;9.73;;;5.03;;
61572;SDS011;47465;43.094;12.434;2023-01-10T12:18:46;10.50;;;5.65;;
61572;SDS011;47465;43.094;12.434;2023-01-10T12:21:14;11.38;;;5.53;;
61572;SDS011;47465;43.094;12.434;2023-01-10T12:23:44;9.45;;;4.82;;
61572;SDS011;47465;43.094;12.434;2023-01-10T12:26:14;7.60;;;5.38;;
61572;SDS011;47465;43.094;12.434;2023-01-10T12:28:41;8.57;;;5.80;;
61572;SDS011;47465;43.094;12.434;2023-01-10T12:31:11;10.18;;;5.60;;
61572;SDS011;47465;43.094;12.434;2023-01-10T12:33:40;9.25;;;4.78;;
61572;SDS011;47465;43.094;12.434;2023-01-10T12:36:12;7.15;;;5.15;;
61572;SDS011;47465;43.094;12.434;2023-01-10T12:38:49;9.00;;;5.20;;
61572;SDS011;47465;43.094;12.434;2023-01-10T12:41:32;6.45;;;4.75;;
61572;SDS011;47465;43.094;12.434;2023-01-10T12:44:38;8.93;;;4.75;;
61572;SDS011;47465;43.094;12.434;2023-01-10T12:47:09;8.20;;;5.00;;
61572;SDS011;47465;43.094;12.434;2023-01-10T12:49:44;8.25;;;4.78;;
61572;SDS011;47465;43.094;12.434;2023-01-10T12:52:13;8.48;;;4.47;;
61572;SDS011;47465;43.094;12.434;2023-01-10T12:54:44;8.70;;;3.85;;
61572;SDS011;47465;43.094;12.434;2023-01-10T12:57:15;7.57;;;4.18;;
61572;SDS011;47465;43.094;12.434;2023-01-10T12:59:49;9.45;;;4.80;;
61572;SDS011;47465;43.094;12.434;2023-01-10T13:02:18;7.30;;;4.63;;
61572;SDS011;47465;43.094;12.434;2023-01-10T13:04:49;8.35;;;4.53;;
61572;SDS011;47465;43.094;12.434;2023-01-10T13:07:18;9.30;;;4.80;;
61572;SDS011;47465;43.094;12.434;2023-01-10T13:09:45;9.60;;;4.82;;
61572;SDS011;47465;43.094;12.434;2023-01-10T13:12:12;8.23;;;5.00;;
61572;SDS011;47465;43.094;12.434;2023-01-10T13:14:45;8.10;;;4.80;;
61572;SDS011;47465;43.094;12.434;2023-01-10T13:17:21;9.00;;;4.55;;
61572;SDS011;47465;43.094;12.434;2023-01-10T13:20:17;10.02;;;4.60;;
61572;SDS011;47465;43.094;12.434;2023-01-10T13:23:26;7.43;;;4.15;;
61572;SDS011;47465;43.094;12.434;2023-01-10T13:25:55;7.63;;;4.57;;
61572;SDS011;47465;43.094;12.434;2023-01-10T13:28:26;9.27;;;4.63;;
61572;SDS011;47465;43.094;12.434;2023-01-10T13:30:56;8.05;;;4.22;;
61572;SDS011;47465;43.094;12.434;2023-01-10T13:33:27;7.25;;;4.05;;
61572;SDS011;47465;43.094;12.434;2023-01-10T13:35:57;6.63;;;3.78;;
61572;SDS011;47465;43.094;12.434;2023-01-10T13:38:42;10.00;;;4.35;;
61572;SDS011;47465;43.094;12.434;2023-01-10T13:41:18;8.25;;;4.20;;
61572;SDS011;47465;43.094;12.434;2023-01-10T13:44:27;7.97;;;4.30;;
61572;SDS011;47465;43.094;12.434;2023-01-10T13:46:56;6.07;;;3.78;;
61572;SDS011;47465;43.094;12.434;2023-01-10T13:52:30;7.97;;;4.40;;
61572;SDS011;47465;43.094;12.434;2023-01-10T13:54:59;6.63;;;4.18;;
61572;SDS011;47465;43.094;12.434;2023-01-10T14:00:23;7.43;;;4.30;;
61572;SDS011;47465;43.094;12.434;2023-01-10T14:03:37;9.40;;;4.68;;
61572;SDS011;47465;43.094;12.434;2023-01-10T14:06:05;8.88;;;4.97;;
61572;SDS011;47465;43.094;12.434;2023-01-10T14:08:37;8.75;;;4.57;;
61572;SDS011;47465;43.094;12.434;2023-01-10T14:11:04;9.40;;;4.80;;
61572;SDS011;47465;43.094;12.434;2023-01-10T14:13:35;8.07;;;4.85;;
61572;SDS011;47465;43.094;12.434;2023-01-10T14:16:02;8.57;;;4.55;;
61572;SDS011;47465;43.094;12.434;2023-01-10T14:18:29;8.13;;;4.10;;
61572;SDS011;47465;43.094;12.434;2023-01-10T14:21:00;8.05;;;4.28;;
61572;SDS011;47465;43.094;12.434;2023-01-10T14:23:29;7.07;;;4.10;;
61572;SDS011;47465;43.094;12.434;2023-01-10T14:25:58;6.50;;;4.00;;
61572;SDS011;47465;43.094;12.434;2023-01-10T14:28:26;8.23;;;4.20;;
61572;SDS011;47465;43.094;12.434;2023-01-10T14:31:01;7.32;;;4.05;;
61572;SDS011;47465;43.094;12.434;2023-01-10T14:33:33;8.73;;;4.88;;
61572;SDS011;47465;43.094;12.434;2023-01-10T14:36:06;10.40;;;4.85;;
61572;SDS011;47465;43.094;12.434;2023-01-10T14:38:35;9.38;;;4.65;;
61572;SDS011;47465;43.094;12.434;2023-01-10T14:41:10;8.32;;;5.22;;
61572;SDS011;47465;43.094;12.434;2023-01-10T14:43:41;6.68;;;3.80;;
61572;SDS011;47465;43.094;12.434;2023-01-10T14:46:10;7.10;;;4.43;;
61572;SDS011;47465;43.094;12.434;2023-01-10T14:48:40;9.02;;;4.80;;
61572;SDS011;47465;43.094;12.434;2023-01-10T14:51:21;8.95;;;4.68;;
61572;SDS011;47465;43.094;12.434;2023-01-10T14:53:54;9.23;;;4.50;;
61572;SDS011;47465;43.094;12.434;2023-01-10T14:56:22;6.70;;;4.60;;